sensor_id;sensor_type;location;lat;lon;timestamp;P1;durP1;ratioP1;P2;durP2;ratioP2
55784;SDS011;41709;52.536;5.688;2023-04-24T00:00:36;2.30;;;1.65;;
55784;SDS011;41709;52.536;5.688;2023-04-24T00:03:03;1.52;;;1.38;;
55784;SDS011;41709;52.536;5.688;2023-04-24T00:05:28;2.63;;;1.65;;
55784;SDS011;41709;52.536;5.688;2023-04-24T00:07:54;1.90;;;1.58;;
55784;SDS011;41709;52.536;5.688;2023-04-24T00:10:20;1.83;;;1.35;;
55784;SDS011;41709;52.536;5.688;2023-04-24T00:12:46;1.52;;;1.42;;
55784;SDS011;41709;52.536;5.688;2023-04-24T00:15:11;2.47;;;1.60;;
55784;SDS011;41709;52.536;5.688;2023-04-24T00:17:37;1.65;;;1.55;;
55784;SDS011;41709;52.536;5.688;2023-04-24T00:20:03;1.88;;;1.77;;
55784;SDS011;41709;52.536;5.688;2023-04-24T00:22:31;2.00;;;1.90;;
55784;SDS011;41709;52.536;5.688;2023-04-24T00:24:58;1.58;;;1.48;;
55784;SDS011;41709;52.536;5.688;2023-04-24T00:27:23;1.90;;;1.80;;
55784;SDS011;41709;52.536;5.688;2023-04-24T00:29:49;2.50;;;2.30;;
55784;SDS011;41709;52.536;5.688;2023-04-24T00:32:14;2.40;;;2.20;;
55784;SDS011;41709;52.536;5.688;2023-04-24T00:34:40;2.58;;;2.38;;
55784;SDS011;41709;52.536;5.688;2023-04-24T00:37:07;2.50;;;2.30;;
55784;SDS011;41709;52.536;5.688;2023-04-24T00:39:32;3.92;;;2.78;;
55784;SDS011;41709;52.536;5.688;2023-04-24T00:41:58;3.55;;;3.10;;
55784;SDS011;41709;52.536;5.688;2023-04-24T00:44:24;3.88;;;3.58;;
55784;SDS011;41709;52.536;5.688;2023-04-24T00:46:49;4.57;;;4.18;;
55784;SDS011;41709;52.536;5.688;2023-04-24T00:49:19;9.35;;;6.55;;
55784;SDS011;41709;52.536;5.688;2023-04-24T00:51:45;5.05;;;4.65;;
55784;SDS011;41709;52.536;5.688;2023-04-24T00:54:12;6.90;;;4.95;;
55784;SDS011;41709;52.536;5.688;2023-04-24T00:56:38;5.55;;;5.15;;
55784;SDS011;41709;52.536;5.688;2023-04-24T00:59:05;6.07;;;5.47;;
55784;SDS011;41709;52.536;5.688;2023-04-24T01:01:31;4.72;;;4.32;;
55784;SDS011;41709;52.536;5.688;2023-04-24T01:03:57;5.13;;;4.57;;
55784;SDS011;41709;52.536;5.688;2023-04-24T01:06:26;4.85;;;3.35;;
55784;SDS011;41709;52.536;5.688;2023-04-24T01:08:53;2.80;;;2.50;;
55784;SDS011;41709;52.536;5.688;2023-04-24T01:11:20;6.50;;;3.05;;
55784;SDS011;41709;52.536;5.688;2023-04-24T01:13:47;1.95;;;1.83;;
55784;SDS011;41709;52.536;5.688;2023-04-24T01:16:13;2.65;;;1.70;;
55784;SDS011;41709;52.536;5.688;2023-04-24T01:18:39;2.25;;;1.60;;
55784;SDS011;41709;52.536;5.688;2023-04-24T01:21:06;2.50;;;2.30;;
55784;SDS011;41709;52.536;5.688;2023-04-24T01:23:33;2.50;;;2.10;;
55784;SDS011;41709;52.536;5.688;2023-04-24T01:25:59;2.53;;;2.20;;
55784;SDS011;41709;52.536;5.688;2023-04-24T01:28:25;3.67;;;3.38;;
55784;SDS011;41709;52.536;5.688;2023-04-24T01:30:51;2.95;;;2.63;;
55784;SDS011;41709;52.536;5.688;2023-04-24T01:33:18;4.43;;;2.72;;
55784;SDS011;41709;52.536;5.688;2023-04-24T01:35:46;2.78;;;2.33;;
55784;SDS011;41709;52.536;5.688;2023-04-24T01:38:11;3.28;;;2.13;;
55784;SDS011;41709;52.536;5.688;2023-04-24T01:40:37;2.83;;;1.80;;
55784;SDS011;41709;52.536;5.688;2023-04-24T01:43:03;2.05;;;1.63;;
55784;SDS011;41709;52.536;5.688;2023-04-24T01:45:29;1.48;;;1.38;;
55784;SDS011;41709;52.536;5.688;2023-04-24T01:47:54;1.75;;;1.30;;
55784;SDS011;41709;52.536;5.688;2023-04-24T01:50:20;1.00;;;1.00;;
55784;SDS011;41709;52.536;5.688;2023-04-24T01:52:46;1.73;;;0.90;;
55784;SDS011;41709;52.536;5.688;2023-04-24T01:55:11;1.10;;;0.82;;
55784;SDS011;41709;52.536;5.688;2023-04-24T01:57:37;0.85;;;0.85;;
55784;SDS011;41709;52.536;5.688;2023-04-24T02:00:03;1.00;;;0.90;;
55784;SDS011;41709;52.536;5.688;2023-04-24T02:02:29;0.95;;;0.88;;
55784;SDS011;41709;52.536;5.688;2023-04-24T02:04:55;1.63;;;1.10;;
55784;SDS011;41709;52.536;5.688;2023-04-24T02:07:22;1.25;;;0.60;;
55784;SDS011;41709;52.536;5.688;2023-04-24T02:09:47;0.80;;;0.60;;
55784;SDS011;41709;52.536;5.688;2023-04-24T02:12:13;0.88;;;0.47;;
55784;SDS011;41709;52.536;5.688;2023-04-24T02:14:42;0.75;;;0.75;;
55784;SDS011;41709;52.536;5.688;2023-04-24T02:17:08;0.70;;;0.60;;
55784;SDS011;41709;52.536;5.688;2023-04-24T02:19:34;1.20;;;0.70;;
55784;SDS011;41709;52.536;5.688;2023-04-24T02:22:00;0.68;;;0.50;;
55784;SDS011;41709;52.536;5.688;2023-04-24T02:24:25;1.13;;;0.68;;
55784;SDS011;41709;52.536;5.688;2023-04-24T02:26:51;1.00;;;0.35;;
55784;SDS011;41709;52.536;5.688;2023-04-24T02:29:16;0.40;;;0.40;;
55784;SDS011;41709;52.536;5.688;2023-04-24T02:31:42;0.20;;;0.20;;
55784;SDS011;41709;52.536;5.688;2023-04-24T02:34:08;0.40;;;0.40;;
55784;SDS011;41709;52.536;5.688;2023-04-24T02:36:33;0.70;;;0.52;;
55784;SDS011;41709;52.536;5.688;2023-04-24T02:38:59;0.70;;;0.52;;
55784;SDS011;41709;52.536;5.688;2023-04-24T02:41:26;0.75;;;0.75;;
55784;SDS011;41709;52.536;5.688;2023-04-24T02:43:56;1.98;;;1.17;;
55784;SDS011;41709;52.536;5.688;2023-04-24T02:46:21;1.20;;;1.10;;
55784;SDS011;41709;52.536;5.688;2023-04-24T02:48:47;3.22;;;1.30;;
55784;SDS011;41709;52.536;5.688;2023-04-24T02:51:12;1.23;;;1.10;;
55784;SDS011;41709;52.536;5.688;2023-04-24T02:53:38;2.78;;;0.90;;
55784;SDS011;41709;52.536;5.688;2023-04-24T02:56:04;0.85;;;0.80;;
55784;SDS011;41709;52.536;5.688;2023-04-24T02:58:29;0.68;;;0.68;;
55784;SDS011;41709;52.536;5.688;2023-04-24T03:00:55;0.57;;;0.55;;
55784;SDS011;41709;52.536;5.688;2023-04-24T03:03:21;1.40;;;0.40;;
55784;SDS011;41709;52.536;5.688;2023-04-24T03:05:47;0.70;;;0.43;;
55784;SDS011;41709;52.536;5.688;2023-04-24T03:08:13;0.55;;;0.30;;
55784;SDS011;41709;52.536;5.688;2023-04-24T03:10:39;0.47;;;0.30;;
55784;SDS011;41709;52.536;5.688;2023-04-24T03:13:05;1.38;;;0.30;;
55784;SDS011;41709;52.536;5.688;2023-04-24T03:15:30;0.57;;;0.20;;
55784;SDS011;41709;52.536;5.688;2023-04-24T03:17:56;1.35;;;0.38;;
55784;SDS011;41709;52.536;5.688;2023-04-24T03:20:21;0.85;;;0.30;;
55784;SDS011;41709;52.536;5.688;2023-04-24T03:22:47;0.30;;;0.30;;
55784;SDS011;41709;52.536;5.688;2023-04-24T03:25:12;2.40;;;0.30;;
55784;SDS011;41709;52.536;5.688;2023-04-24T03:27:38;1.55;;;0.40;;
55784;SDS011;41709;52.536;5.688;2023-04-24T03:30:05;0.65;;;0.47;;
55784;SDS011;41709;52.536;5.688;2023-04-24T03:32:34;0.68;;;0.45;;
55784;SDS011;41709;52.536;5.688;2023-04-24T03:34:59;0.85;;;0.38;;
55784;SDS011;41709;52.536;5.688;2023-04-24T03:37:25;1.23;;;0.50;;
55784;SDS011;41709;52.536;5.688;2023-04-24T03:39:51;3.58;;;0.63;;
55784;SDS011;41709;52.536;5.688;2023-04-24T03:42:17;4.63;;;0.70;;
55784;SDS011;41709;52.536;5.688;2023-04-24T03:44:43;1.27;;;0.75;;
55784;SDS011;41709;52.536;5.688;2023-04-24T03:47:08;1.92;;;0.82;;
55784;SDS011;41709;52.536;5.688;2023-04-24T03:49:34;0.63;;;0.60;;
55784;SDS011;41709;52.536;5.688;2023-04-24T03:52:00;2.92;;;0.82;;
55784;SDS011;41709;52.536;5.688;2023-04-24T03:54:25;2.55;;;1.00;;
55784;SDS011;41709;52.536;5.688;2023-04-24T03:56:51;1.30;;;1.10;;
55784;SDS011;41709;52.536;5.688;2023-04-24T03:59:16;1.02;;;0.90;;
55784;SDS011;41709;52.536;5.688;2023-04-24T04:01:42;2.72;;;1.80;;
55784;SDS011;41709;52.536;5.688;2023-04-24T04:04:07;4.22;;;1.40;;
55784;SDS011;41709;52.536;5.688;2023-04-24T04:06:33;1.85;;;1.00;;
55784;SDS011;41709;52.536;5.688;2023-04-24T04:08:59;0.70;;;0.70;;
55784;SDS011;41709;52.536;5.688;2023-04-24T04:11:25;2.25;;;0.60;;
55784;SDS011;41709;52.536;5.688;2023-04-24T04:13:51;1.42;;;0.40;;
55784;SDS011;41709;52.536;5.688;2023-04-24T04:16:16;0.40;;;0.40;;
55784;SDS011;41709;52.536;5.688;2023-04-24T04:18:42;1.38;;;0.52;;
55784;SDS011;41709;52.536;5.688;2023-04-24T04:21:08;0.50;;;0.40;;
55784;SDS011;41709;52.536;5.688;2023-04-24T04:23:34;0.50;;;0.50;;
55784;SDS011;41709;52.536;5.688;2023-04-24T04:25:59;1.50;;;0.50;;
55784;SDS011;41709;52.536;5.688;2023-04-24T04:28:26;3.10;;;0.60;;
55784;SDS011;41709;52.536;5.688;2023-04-24T04:30:51;0.60;;;0.60;;
55784;SDS011;41709;52.536;5.688;2023-04-24T04:33:20;0.63;;;0.40;;
55784;SDS011;41709;52.536;5.688;2023-04-24T04:35:46;1.15;;;0.50;;
55784;SDS011;41709;52.536;5.688;2023-04-24T04:38:17;2.08;;;0.30;;
55784;SDS011;41709;52.536;5.688;2023-04-24T04:40:43;1.42;;;0.40;;
55784;SDS011;41709;52.536;5.688;2023-04-24T04:43:10;0.60;;;0.43;;
55784;SDS011;41709;52.536;5.688;2023-04-24T04:45:36;0.90;;;0.47;;
55784;SDS011;41709;52.536;5.688;2023-04-24T04:48:03;1.08;;;0.43;;
55784;SDS011;41709;52.536;5.688;2023-04-24T04:50:30;0.50;;;0.50;;
55784;SDS011;41709;52.536;5.688;2023-04-24T04:52:56;0.50;;;0.40;;
55784;SDS011;41709;52.536;5.688;2023-04-24T04:55:22;1.38;;;0.60;;
55784;SDS011;41709;52.536;5.688;2023-04-24T04:57:47;3.35;;;0.77;;
55784;SDS011;41709;52.536;5.688;2023-04-24T05:00:13;2.58;;;0.85;;
55784;SDS011;41709;52.536;5.688;2023-04-24T05:02:38;3.30;;;0.90;;
55784;SDS011;41709;52.536;5.688;2023-04-24T05:05:05;3.25;;;0.85;;
55784;SDS011;41709;52.536;5.688;2023-04-24T05:07:31;1.73;;;0.80;;
55784;SDS011;41709;52.536;5.688;2023-04-24T05:09:56;1.95;;;1.25;;
55784;SDS011;41709;52.536;5.688;2023-04-24T05:12:22;3.28;;;1.30;;
55784;SDS011;41709;52.536;5.688;2023-04-24T05:14:47;1.95;;;1.52;;
55784;SDS011;41709;52.536;5.688;2023-04-24T05:17:13;2.08;;;1.38;;
55784;SDS011;41709;52.536;5.688;2023-04-24T05:19:39;2.40;;;1.67;;
55784;SDS011;41709;52.536;5.688;2023-04-24T05:22:04;2.63;;;2.00;;
55784;SDS011;41709;52.536;5.688;2023-04-24T05:24:32;2.90;;;2.28;;
55784;SDS011;41709;52.536;5.688;2023-04-24T05:26:58;2.92;;;2.38;;
55784;SDS011;41709;52.536;5.688;2023-04-24T05:29:24;3.22;;;2.40;;
55784;SDS011;41709;52.536;5.688;2023-04-24T05:31:51;2.97;;;2.08;;
55784;SDS011;41709;52.536;5.688;2023-04-24T05:34:17;4.18;;;1.88;;
55784;SDS011;41709;52.536;5.688;2023-04-24T05:36:43;4.10;;;2.08;;
55784;SDS011;41709;52.536;5.688;2023-04-24T05:39:08;3.65;;;1.80;;
55784;SDS011;41709;52.536;5.688;2023-04-24T05:41:34;2.65;;;2.10;;
55784;SDS011;41709;52.536;5.688;2023-04-24T05:44:00;3.42;;;2.03;;
55784;SDS011;41709;52.536;5.688;2023-04-24T05:46:25;1.95;;;1.60;;
55784;SDS011;41709;52.536;5.688;2023-04-24T05:48:51;3.22;;;1.70;;
55784;SDS011;41709;52.536;5.688;2023-04-24T05:51:16;4.13;;;2.20;;
55784;SDS011;41709;52.536;5.688;2023-04-24T05:53:42;6.50;;;1.80;;
55784;SDS011;41709;52.536;5.688;2023-04-24T05:56:08;5.28;;;2.30;;
55784;SDS011;41709;52.536;5.688;2023-04-24T05:58:33;2.72;;;1.55;;
55784;SDS011;41709;52.536;5.688;2023-04-24T06:00:59;5.70;;;1.50;;
55784;SDS011;41709;52.536;5.688;2023-04-24T06:03:26;4.45;;;2.38;;
55784;SDS011;41709;52.536;5.688;2023-04-24T06:05:52;3.92;;;2.20;;
55784;SDS011;41709;52.536;5.688;2023-04-24T06:08:18;3.35;;;2.08;;
55784;SDS011;41709;52.536;5.688;2023-04-24T06:10:44;3.03;;;2.08;;
55784;SDS011;41709;52.536;5.688;2023-04-24T06:13:10;5.63;;;2.05;;
55784;SDS011;41709;52.536;5.688;2023-04-24T06:15:36;3.92;;;0.90;;
55784;SDS011;41709;52.536;5.688;2023-04-24T06:18:02;3.42;;;0.90;;
55784;SDS011;41709;52.536;5.688;2023-04-24T06:20:28;4.15;;;1.38;;
55784;SDS011;41709;52.536;5.688;2023-04-24T06:22:54;2.47;;;1.10;;
55784;SDS011;41709;52.536;5.688;2023-04-24T06:25:19;3.13;;;1.67;;
55784;SDS011;41709;52.536;5.688;2023-04-24T06:27:45;6.32;;;1.80;;
55784;SDS011;41709;52.536;5.688;2023-04-24T06:30:11;6.75;;;1.70;;
55784;SDS011;41709;52.536;5.688;2023-04-24T06:32:37;4.82;;;2.53;;
55784;SDS011;41709;52.536;5.688;2023-04-24T06:35:03;8.60;;;5.85;;
55784;SDS011;41709;52.536;5.688;2023-04-24T06:37:29;15.45;;;8.10;;
55784;SDS011;41709;52.536;5.688;2023-04-24T06:39:55;16.25;;;9.25;;
55784;SDS011;41709;52.536;5.688;2023-04-24T06:42:20;14.35;;;8.57;;
55784;SDS011;41709;52.536;5.688;2023-04-24T06:44:46;17.33;;;9.30;;
55784;SDS011;41709;52.536;5.688;2023-04-24T06:47:12;18.90;;;9.30;;
55784;SDS011;41709;52.536;5.688;2023-04-24T06:49:38;15.70;;;9.65;;
55784;SDS011;41709;52.536;5.688;2023-04-24T06:52:05;18.05;;;10.63;;
55784;SDS011;41709;52.536;5.688;2023-04-24T06:54:31;17.70;;;11.20;;
55784;SDS011;41709;52.536;5.688;2023-04-24T06:56:57;20.35;;;10.55;;
55784;SDS011;41709;52.536;5.688;2023-04-24T06:59:24;19.02;;;10.35;;
55784;SDS011;41709;52.536;5.688;2023-04-24T07:01:50;15.93;;;10.45;;
55784;SDS011;41709;52.536;5.688;2023-04-24T07:04:16;13.23;;;7.57;;
55784;SDS011;41709;52.536;5.688;2023-04-24T07:06:42;10.30;;;6.05;;
55784;SDS011;41709;52.536;5.688;2023-04-24T07:09:09;9.25;;;5.60;;
55784;SDS011;41709;52.536;5.688;2023-04-24T07:11:35;5.05;;;4.03;;
55784;SDS011;41709;52.536;5.688;2023-04-24T07:14:01;9.68;;;4.03;;
55784;SDS011;41709;52.536;5.688;2023-04-24T07:16:27;7.60;;;5.25;;
55784;SDS011;41709;52.536;5.688;2023-04-24T07:18:53;11.00;;;6.35;;
55784;SDS011;41709;52.536;5.688;2023-04-24T07:21:18;11.23;;;7.10;;
55784;SDS011;41709;52.536;5.688;2023-04-24T07:23:44;10.02;;;7.10;;
55784;SDS011;41709;52.536;5.688;2023-04-24T07:26:10;14.18;;;8.05;;
55784;SDS011;41709;52.536;5.688;2023-04-24T07:28:35;20.33;;;9.05;;
55784;SDS011;41709;52.536;5.688;2023-04-24T07:31:01;15.35;;;8.10;;
55784;SDS011;41709;52.536;5.688;2023-04-24T07:33:26;16.05;;;8.05;;
55784;SDS011;41709;52.536;5.688;2023-04-24T07:35:52;15.80;;;7.10;;
55784;SDS011;41709;52.536;5.688;2023-04-24T07:38:18;13.95;;;7.53;;
55784;SDS011;41709;52.536;5.688;2023-04-24T07:40:47;14.73;;;6.88;;
55784;SDS011;41709;52.536;5.688;2023-04-24T07:43:13;12.32;;;7.10;;
55784;SDS011;41709;52.536;5.688;2023-04-24T07:45:39;11.75;;;5.97;;
55784;SDS011;41709;52.536;5.688;2023-04-24T07:48:05;12.13;;;5.63;;
55784;SDS011;41709;52.536;5.688;2023-04-24T07:50:31;9.20;;;5.53;;
55784;SDS011;41709;52.536;5.688;2023-04-24T07:52:57;13.38;;;5.68;;
55784;SDS011;41709;52.536;5.688;2023-04-24T07:55:23;9.93;;;5.18;;
55784;SDS011;41709;52.536;5.688;2023-04-24T07:57:48;11.38;;;5.30;;
55784;SDS011;41709;52.536;5.688;2023-04-24T08:00:14;13.15;;;5.40;;
55784;SDS011;41709;52.536;5.688;2023-04-24T08:02:40;14.75;;;5.40;;
55784;SDS011;41709;52.536;5.688;2023-04-24T08:05:06;21.30;;;5.70;;
55784;SDS011;41709;52.536;5.688;2023-04-24T08:07:32;9.95;;;5.68;;
55784;SDS011;41709;52.536;5.688;2023-04-24T08:09:58;9.95;;;5.90;;
55784;SDS011;41709;52.536;5.688;2023-04-24T08:12:24;11.13;;;5.35;;
55784;SDS011;41709;52.536;5.688;2023-04-24T08:14:50;14.80;;;5.28;;
55784;SDS011;41709;52.536;5.688;2023-04-24T08:17:16;12.13;;;4.53;;
55784;SDS011;41709;52.536;5.688;2023-04-24T08:19:42;11.38;;;4.93;;
55784;SDS011;41709;52.536;5.688;2023-04-24T08:22:12;9.70;;;4.90;;
55784;SDS011;41709;52.536;5.688;2023-04-24T08:24:38;14.80;;;5.13;;
55784;SDS011;41709;52.536;5.688;2023-04-24T08:27:04;9.25;;;4.28;;
55784;SDS011;41709;52.536;5.688;2023-04-24T08:29:29;6.28;;;3.63;;
55784;SDS011;41709;52.536;5.688;2023-04-24T08:31:55;11.48;;;5.10;;
55784;SDS011;41709;52.536;5.688;2023-04-24T08:34:21;12.05;;;3.80;;
55784;SDS011;41709;52.536;5.688;2023-04-24T08:36:47;9.73;;;3.25;;
55784;SDS011;41709;52.536;5.688;2023-04-24T08:39:13;13.10;;;3.50;;
55784;SDS011;41709;52.536;5.688;2023-04-24T08:41:40;15.38;;;4.20;;
55784;SDS011;41709;52.536;5.688;2023-04-24T08:44:08;10.70;;;3.77;;
55784;SDS011;41709;52.536;5.688;2023-04-24T08:46:34;9.13;;;3.03;;
55784;SDS011;41709;52.536;5.688;2023-04-24T08:49:01;15.00;;;3.10;;
55784;SDS011;41709;52.536;5.688;2023-04-24T08:51:28;11.93;;;3.10;;
55784;SDS011;41709;52.536;5.688;2023-04-24T08:53:55;12.38;;;3.45;;
55784;SDS011;41709;52.536;5.688;2023-04-24T08:56:22;17.42;;;3.17;;
55784;SDS011;41709;52.536;5.688;2023-04-24T08:58:52;12.45;;;4.05;;
55784;SDS011;41709;52.536;5.688;2023-04-24T09:01:19;8.88;;;3.22;;
55784;SDS011;41709;52.536;5.688;2023-04-24T09:03:46;10.88;;;3.92;;
55784;SDS011;41709;52.536;5.688;2023-04-24T09:06:14;15.20;;;4.30;;
55784;SDS011;41709;52.536;5.688;2023-04-24T09:08:42;14.37;;;4.47;;
55784;SDS011;41709;52.536;5.688;2023-04-24T09:11:10;12.35;;;3.75;;
55784;SDS011;41709;52.536;5.688;2023-04-24T09:13:37;10.27;;;3.05;;
55784;SDS011;41709;52.536;5.688;2023-04-24T09:16:03;9.48;;;3.67;;
55784;SDS011;41709;52.536;5.688;2023-04-24T09:18:29;13.18;;;3.92;;
55784;SDS011;41709;52.536;5.688;2023-04-24T09:21:02;19.00;;;4.60;;
55784;SDS011;41709;52.536;5.688;2023-04-24T09:23:31;13.98;;;3.50;;
55784;SDS011;41709;52.536;5.688;2023-04-24T09:25:57;11.82;;;3.63;;
55784;SDS011;41709;52.536;5.688;2023-04-24T09:28:38;18.58;;;4.10;;
55784;SDS011;41709;52.536;5.688;2023-04-24T09:31:14;13.63;;;4.05;;
55784;SDS011;41709;52.536;5.688;2023-04-24T09:38:58;13.73;;;2.80;;
55784;SDS011;41709;52.536;5.688;2023-04-24T09:41:28;10.10;;;2.30;;
55784;SDS011;41709;52.536;5.688;2023-04-24T09:43:54;13.27;;;3.55;;
55784;SDS011;41709;52.536;5.688;2023-04-24T09:46:28;17.75;;;3.85;;
55784;SDS011;41709;52.536;5.688;2023-04-24T09:48:55;11.60;;;2.08;;
55784;SDS011;41709;52.536;5.688;2023-04-24T09:51:33;14.52;;;2.78;;
55784;SDS011;41709;52.536;5.688;2023-04-24T09:54:01;11.82;;;3.00;;
55784;SDS011;41709;52.536;5.688;2023-04-24T09:56:26;7.05;;;2.38;;
55784;SDS011;41709;52.536;5.688;2023-04-24T09:58:53;11.02;;;2.17;;
55784;SDS011;41709;52.536;5.688;2023-04-24T10:01:29;10.82;;;2.10;;
55784;SDS011;41709;52.536;5.688;2023-04-24T10:03:56;7.70;;;2.20;;
55784;SDS011;41709;52.536;5.688;2023-04-24T10:06:21;8.40;;;1.75;;
55784;SDS011;41709;52.536;5.688;2023-04-24T10:08:47;12.80;;;2.88;;
55784;SDS011;41709;52.536;5.688;2023-04-24T10:11:15;8.70;;;1.90;;
55784;SDS011;41709;52.536;5.688;2023-04-24T10:13:41;8.52;;;1.92;;
55784;SDS011;41709;52.536;5.688;2023-04-24T10:16:08;12.20;;;1.88;;
55784;SDS011;41709;52.536;5.688;2023-04-24T10:18:34;6.15;;;1.75;;
55784;SDS011;41709;52.536;5.688;2023-04-24T10:21:00;11.57;;;2.58;;
55784;SDS011;41709;52.536;5.688;2023-04-24T10:23:26;8.65;;;1.80;;
55784;SDS011;41709;52.536;5.688;2023-04-24T10:25:53;8.55;;;2.13;;
55784;SDS011;41709;52.536;5.688;2023-04-24T10:28:19;8.52;;;1.65;;
55784;SDS011;41709;52.536;5.688;2023-04-24T10:30:46;9.95;;;2.20;;
55784;SDS011;41709;52.536;5.688;2023-04-24T10:33:13;8.90;;;1.48;;
55784;SDS011;41709;52.536;5.688;2023-04-24T10:35:43;7.65;;;1.67;;
55784;SDS011;41709;52.536;5.688;2023-04-24T10:38:14;12.45;;;1.83;;
55784;SDS011;41709;52.536;5.688;2023-04-24T10:40:43;7.30;;;1.90;;
55784;SDS011;41709;52.536;5.688;2023-04-24T10:43:09;10.75;;;1.75;;
55784;SDS011;41709;52.536;5.688;2023-04-24T10:45:36;11.18;;;2.22;;
55784;SDS011;41709;52.536;5.688;2023-04-24T10:48:07;6.18;;;1.20;;
55784;SDS011;41709;52.536;5.688;2023-04-24T10:50:42;6.45;;;1.20;;
55784;SDS011;41709;52.536;5.688;2023-04-24T10:53:16;4.90;;;1.58;;
55784;SDS011;41709;52.536;5.688;2023-04-24T10:58:13;4.82;;;1.30;;
55784;SDS011;41709;52.536;5.688;2023-04-24T11:00:41;5.50;;;1.45;;
55784;SDS011;41709;52.536;5.688;2023-04-24T11:03:22;4.53;;;1.25;;
55784;SDS011;41709;52.536;5.688;2023-04-24T11:05:55;4.68;;;1.88;;
55784;SDS011;41709;52.536;5.688;2023-04-24T11:08:23;4.18;;;2.08;;
55784;SDS011;41709;52.536;5.688;2023-04-24T11:11:02;5.63;;;1.05;;
55784;SDS011;41709;52.536;5.688;2023-04-24T11:19:22;7.22;;;2.70;;
55784;SDS011;41709;52.536;5.688;2023-04-24T11:22:01;8.30;;;1.45;;
55784;SDS011;41709;52.536;5.688;2023-04-24T11:27:13;8.50;;;1.48;;
55784;SDS011;41709;52.536;5.688;2023-04-24T11:29:43;9.15;;;0.85;;
55784;SDS011;41709;52.536;5.688;2023-04-24T11:35:01;6.82;;;0.98;;
55784;SDS011;41709;52.536;5.688;2023-04-24T11:37:44;6.95;;;0.90;;
55784;SDS011;41709;52.536;5.688;2023-04-24T11:40:12;7.45;;;1.00;;
55784;SDS011;41709;52.536;5.688;2023-04-24T11:42:42;8.37;;;1.40;;
55784;SDS011;41709;52.536;5.688;2023-04-24T11:45:09;5.40;;;0.90;;
55784;SDS011;41709;52.536;5.688;2023-04-24T11:47:36;6.22;;;1.23;;
55784;SDS011;41709;52.536;5.688;2023-04-24T11:50:04;8.75;;;1.02;;
55784;SDS011;41709;52.536;5.688;2023-04-24T11:52:31;8.73;;;1.10;;
55784;SDS011;41709;52.536;5.688;2023-04-24T11:54:58;9.80;;;1.10;;
55784;SDS011;41709;52.536;5.688;2023-04-24T11:57:25;4.90;;;0.88;;
55784;SDS011;41709;52.536;5.688;2023-04-24T11:59:53;2.55;;;0.68;;
55784;SDS011;41709;52.536;5.688;2023-04-24T12:02:28;6.50;;;1.58;;
55784;SDS011;41709;52.536;5.688;2023-04-24T12:04:54;9.43;;;1.42;;
55784;SDS011;41709;52.536;5.688;2023-04-24T12:07:20;8.18;;;1.13;;
55784;SDS011;41709;52.536;5.688;2023-04-24T12:09:47;9.32;;;1.02;;
55784;SDS011;41709;52.536;5.688;2023-04-24T12:12:15;2.17;;;0.43;;
55784;SDS011;41709;52.536;5.688;2023-04-24T12:14:42;9.13;;;2.00;;
55784;SDS011;41709;52.536;5.688;2023-04-24T12:17:23;3.72;;;0.85;;
55784;SDS011;41709;52.536;5.688;2023-04-24T12:19:50;3.70;;;0.70;;
55784;SDS011;41709;52.536;5.688;2023-04-24T12:22:16;4.05;;;0.50;;
55784;SDS011;41709;52.536;5.688;2023-04-24T12:24:57;2.83;;;0.73;;
55784;SDS011;41709;52.536;5.688;2023-04-24T12:27:25;1.75;;;0.85;;
55784;SDS011;41709;52.536;5.688;2023-04-24T12:29:52;4.40;;;1.25;;
55784;SDS011;41709;52.536;5.688;2023-04-24T12:32:21;3.83;;;0.63;;
55784;SDS011;41709;52.536;5.688;2023-04-24T12:34:46;4.95;;;0.70;;
55784;SDS011;41709;52.536;5.688;2023-04-24T12:37:12;2.90;;;0.60;;
55784;SDS011;41709;52.536;5.688;2023-04-24T12:39:37;5.05;;;1.15;;
55784;SDS011;41709;52.536;5.688;2023-04-24T12:42:03;4.68;;;1.00;;
55784;SDS011;41709;52.536;5.688;2023-04-24T12:44:32;6.90;;;1.08;;
55784;SDS011;41709;52.536;5.688;2023-04-24T12:46:59;8.52;;;1.67;;
55784;SDS011;41709;52.536;5.688;2023-04-24T12:49:25;4.57;;;0.82;;
55784;SDS011;41709;52.536;5.688;2023-04-24T12:51:51;8.93;;;2.63;;
55784;SDS011;41709;52.536;5.688;2023-04-24T12:54:17;5.15;;;1.73;;
55784;SDS011;41709;52.536;5.688;2023-04-24T12:56:43;9.30;;;1.25;;
55784;SDS011;41709;52.536;5.688;2023-04-24T12:59:09;5.22;;;0.98;;
55784;SDS011;41709;52.536;5.688;2023-04-24T13:01:34;5.85;;;1.10;;
55784;SDS011;41709;52.536;5.688;2023-04-24T13:04:00;10.88;;;1.73;;
55784;SDS011;41709;52.536;5.688;2023-04-24T13:06:26;9.20;;;1.42;;
55784;SDS011;41709;52.536;5.688;2023-04-24T13:08:51;9.90;;;1.83;;
55784;SDS011;41709;52.536;5.688;2023-04-24T13:11:17;9.02;;;1.70;;
55784;SDS011;41709;52.536;5.688;2023-04-24T13:13:43;7.63;;;1.65;;
55784;SDS011;41709;52.536;5.688;2023-04-24T13:16:08;9.20;;;1.98;;
55784;SDS011;41709;52.536;5.688;2023-04-24T13:18:34;6.10;;;1.30;;
55784;SDS011;41709;52.536;5.688;2023-04-24T13:21:00;4.95;;;1.45;;
55784;SDS011;41709;52.536;5.688;2023-04-24T13:23:25;7.30;;;1.38;;
55784;SDS011;41709;52.536;5.688;2023-04-24T13:25:51;6.20;;;1.48;;
55784;SDS011;41709;52.536;5.688;2023-04-24T13:28:16;9.02;;;1.50;;
55784;SDS011;41709;52.536;5.688;2023-04-24T13:30:42;5.80;;;1.13;;
55784;SDS011;41709;52.536;5.688;2023-04-24T13:33:08;7.57;;;1.38;;
55784;SDS011;41709;52.536;5.688;2023-04-24T13:35:34;7.70;;;1.35;;
55784;SDS011;41709;52.536;5.688;2023-04-24T13:37:59;7.60;;;1.40;;
55784;SDS011;41709;52.536;5.688;2023-04-24T13:40:26;13.75;;;2.53;;
55784;SDS011;41709;52.536;5.688;2023-04-24T13:42:52;6.38;;;1.10;;
55784;SDS011;41709;52.536;5.688;2023-04-24T13:45:17;13.10;;;2.03;;
55784;SDS011;41709;52.536;5.688;2023-04-24T13:47:43;7.25;;;1.65;;
55784;SDS011;41709;52.536;5.688;2023-04-24T13:50:09;15.00;;;3.25;;
55784;SDS011;41709;52.536;5.688;2023-04-24T13:52:35;7.20;;;1.60;;
55784;SDS011;41709;52.536;5.688;2023-04-24T13:55:00;20.70;;;3.75;;
55784;SDS011;41709;52.536;5.688;2023-04-24T13:57:26;13.32;;;3.33;;
55784;SDS011;41709;52.536;5.688;2023-04-24T13:59:53;17.55;;;2.65;;
55784;SDS011;41709;52.536;5.688;2023-04-24T14:02:20;12.55;;;2.83;;
55784;SDS011;41709;52.536;5.688;2023-04-24T14:04:46;13.85;;;2.22;;
55784;SDS011;41709;52.536;5.688;2023-04-24T14:07:13;10.68;;;2.25;;
55784;SDS011;41709;52.536;5.688;2023-04-24T14:09:38;13.95;;;2.75;;
55784;SDS011;41709;52.536;5.688;2023-04-24T14:12:04;12.65;;;2.13;;
55784;SDS011;41709;52.536;5.688;2023-04-24T14:14:30;12.82;;;2.92;;
55784;SDS011;41709;52.536;5.688;2023-04-24T14:16:56;12.30;;;2.17;;
55784;SDS011;41709;52.536;5.688;2023-04-24T14:19:22;10.82;;;1.70;;
55784;SDS011;41709;52.536;5.688;2023-04-24T14:21:48;13.63;;;2.90;;
55784;SDS011;41709;52.536;5.688;2023-04-24T14:24:14;11.50;;;2.03;;
55784;SDS011;41709;52.536;5.688;2023-04-24T14:26:40;12.70;;;2.40;;
55784;SDS011;41709;52.536;5.688;2023-04-24T14:29:06;11.52;;;2.78;;
55784;SDS011;41709;52.536;5.688;2023-04-24T14:31:31;14.30;;;2.78;;
55784;SDS011;41709;52.536;5.688;2023-04-24T14:33:57;8.02;;;1.90;;
55784;SDS011;41709;52.536;5.688;2023-04-24T14:36:22;14.60;;;2.70;;
55784;SDS011;41709;52.536;5.688;2023-04-24T14:38:49;13.23;;;3.33;;
55784;SDS011;41709;52.536;5.688;2023-04-24T14:41:14;13.27;;;2.35;;
55784;SDS011;41709;52.536;5.688;2023-04-24T14:43:40;9.77;;;2.97;;
55784;SDS011;41709;52.536;5.688;2023-04-24T14:46:06;6.50;;;1.90;;
55784;SDS011;41709;52.536;5.688;2023-04-24T14:48:31;8.60;;;2.58;;
55784;SDS011;41709;52.536;5.688;2023-04-24T14:50:57;7.35;;;1.40;;
55784;SDS011;41709;52.536;5.688;2023-04-24T14:53:23;11.18;;;2.60;;
55784;SDS011;41709;52.536;5.688;2023-04-24T14:55:48;9.18;;;2.25;;
55784;SDS011;41709;52.536;5.688;2023-04-24T14:58:14;10.20;;;1.98;;